Time;durP1;ratioP1;P1;durP2;ratioP2;P2;SDS_P1;SDS_P2;PMS_P1;PMS_P2;Temp;Humidity;BMP_temperature;BMP_pressure;BME280_temperature;BME280_humidity;BME280_pressure;Samples;Min_cycle;Max_cycle;Signal;HPM_P1;HPM_P2
2022/07/26 00:01:50;;;;;;;1.50;0.83;;;17.60;99.90;;;;;;5113137;28;20478;-85
2022/07/26 00:04:16;;;;;;;1.00;0.80;;;17.60;99.90;;;;;;5113804;28;20350;-90
2022/07/26 00:06:41;;;;;;;1.60;0.60;;;17.60;99.90;;;;;;5114065;28;20204;-85
2022/07/26 00:09:07;;;;;;;1.63;0.90;;;17.60;99.90;;;;;;5112151;28;20174;-86
2022/07/26 00:11:32;;;;;;;0.80;0.23;;;17.60;99.90;;;;;;5113163;28;20633;-86
2022/07/26 00:14:00;;;;;;;1.20;0.73;;;17.60;99.90;;;;;;5112299;28;20248;-86
2022/07/26 00:16:26;;;;;;;2.50;0.60;;;17.50;99.90;;;;;;5112456;28;20180;-87
2022/07/26 00:18:52;;;;;;;1.27;0.60;;;17.50;99.90;;;;;;5111767;28;20464;-87
2022/07/26 00:21:17;;;;;;;2.20;0.73;;;17.50;99.90;;;;;;5111340;28;20503;-85
2022/07/26 00:23:43;;;;;;;1.20;0.37;;;17.50;99.90;;;;;;5112656;28;20168;-88
2022/07/26 00:26:08;;;;;;;1.27;0.30;;;17.60;99.90;;;;;;5112751;28;20173;-87
2022/07/26 00:28:34;;;;;;;2.60;0.93;;;17.60;99.90;;;;;;5112697;28;20170;-87
2022/07/26 00:31:00;;;;;;;1.60;0.60;;;17.60;99.90;;;;;;5111452;28;20273;-92
2022/07/26 00:33:27;;;;;;;1.13;0.40;;;17.50;99.90;;;;;;5111563;28;20263;-87
2022/07/26 00:35:53;;;;;;;1.23;0.40;;;17.50;99.90;;;;;;5112689;28;20168;-85
2022/07/26 00:38:18;;;;;;;1.60;0.60;;;17.50;99.90;;;;;;5112141;28;20773;-84
2022/07/26 00:40:44;;;;;;;1.13;0.47;;;17.40;99.90;;;;;;5112330;28;20214;-84
2022/07/26 00:43:09;;;;;;;1.20;0.37;;;17.50;99.90;;;;;;5112565;28;20704;-86
2022/07/26 00:45:35;;;;;;;2.50;0.60;;;17.50;99.90;;;;;;5112549;28;20171;-87
2022/07/26 00:48:01;;;;;;;7.43;1.33;;;17.40;99.90;;;;;;5113501;28;20177;-86
2022/07/26 00:50:26;;;;;;;0.93;0.40;;;17.40;99.90;;;;;;5116647;28;20209;-86
2022/07/26 00:52:53;;;;;;;2.73;1.07;;;17.40;99.90;;;;;;5114964;28;20173;-86
2022/07/26 00:55:19;;;;;;;1.10;0.40;;;17.40;99.90;;;;;;5115770;28;20653;-85
2022/07/26 00:57:45;;;;;;;1.30;0.57;;;17.40;99.90;;;;;;5117403;28;20409;-85
2022/07/26 01:00:14;;;;;;;2.73;0.40;;;17.40;99.90;;;;;;5117882;28;20473;-87
2022/07/26 01:02:40;;;;;;;0.87;0.50;;;17.30;99.90;;;;;;5116105;28;20249;-89
2022/07/26 01:05:06;;;;;;;1.00;0.43;;;17.40;99.90;;;;;;5117010;28;20455;-89
2022/07/26 01:07:32;;;;;;;3.47;0.53;;;17.40;99.90;;;;;;5116009;28;20185;-89
2022/07/26 01:09:57;;;;;;;1.10;0.40;;;17.30;99.90;;;;;;5117638;28;20421;-88
2022/07/26 01:12:23;;;;;;;1.20;0.53;;;17.30;99.90;;;;;;5115764;28;20216;-85
2022/07/26 01:14:49;;;;;;;1.80;0.83;;;17.20;99.90;;;;;;5117417;28;20173;-85
2022/07/26 01:17:14;;;;;;;1.23;0.70;;;17.20;99.90;;;;;;5119686;28;20179;-87
2022/07/26 01:19:40;;;;;;;1.17;0.30;;;17.20;99.90;;;;;;5117829;28;20196;-90
2022/07/26 01:22:06;;;;;;;4.50;1.07;;;17.20;99.90;;;;;;5115444;28;20250;-88
2022/07/26 01:24:32;;;;;;;1.30;0.50;;;17.20;99.90;;;;;;5115289;28;20432;-88
2022/07/26 01:26:58;;;;;;;2.60;1.17;;;17.20;99.90;;;;;;5115498;28;20483;-87
2022/07/26 01:29:24;;;;;;;1.60;1.00;;;17.20;99.90;;;;;;5118186;28;20169;-92
2022/07/26 01:31:52;;;;;;;1.80;0.43;;;17.20;99.90;;;;;;5118393;28;20228;-90
2022/07/26 01:34:33;;;;;;;1.43;0.50;;;17.20;99.90;;;;;;5125081;28;20785;-94
2022/07/26 01:36:59;;;;;;;5.13;0.67;;;17.10;99.90;;;;;;5123238;28;20428;-92
2022/07/26 01:39:24;;;;;;;1.20;0.30;;;17.10;99.90;;;;;;5122670;28;20949;-93
2022/07/26 01:41:50;;;;;;;1.30;0.47;;;16.90;99.90;;;;;;5121199;28;20237;-94
2022/07/26 01:44:16;;;;;;;1.03;0.30;;;16.90;99.90;;;;;;5117284;28;20911;-91
2022/07/26 01:46:41;;;;;;;0.70;0.40;;;16.90;99.90;;;;;;5116289;28;20220;-89
2022/07/26 01:49:07;;;;;;;1.03;0.40;;;16.90;99.90;;;;;;5117531;28;20261;-89
2022/07/26 01:51:34;;;;;;;3.43;0.60;;;16.80;99.90;;;;;;5115260;28;20181;-92
2022/07/26 01:54:01;;;;;;;1.13;0.43;;;16.80;99.90;;;;;;5118329;28;20504;-89
2022/07/26 01:56:26;;;;;;;1.00;0.30;;;16.70;99.90;;;;;;5116663;28;20435;-89
2022/07/26 01:58:52;;;;;;;1.00;0.40;;;16.70;99.90;;;;;;5113954;28;20422;-89
2022/07/26 02:01:17;;;;;;;0.60;0.33;;;16.70;99.90;;;;;;5115146;28;20213;-86
2022/07/26 02:03:43;;;;;;;1.40;0.70;;;16.60;99.90;;;;;;5115545;28;20176;-87
2022/07/26 02:06:09;;;;;;;2.20;0.50;;;16.60;99.90;;;;;;5117613;28;20171;-90
2022/07/26 02:08:34;;;;;;;1.00;0.23;;;16.60;99.90;;;;;;5120606;28;20223;-90
2022/07/26 02:11:00;;;;;;;0.83;0.30;;;16.50;99.90;;;;;;5121999;28;20173;-88
2022/07/26 02:13:36;;;;;;;0.73;0.23;;;16.50;99.90;;;;;;5114545;28;20171;-86
2022/07/26 02:16:05;;;;;;;2.20;0.50;;;16.40;99.90;;;;;;5114362;28;20264;-87
2022/07/26 02:18:31;;;;;;;1.23;0.40;;;16.40;99.90;;;;;;5122877;28;20407;-89
2022/07/26 02:20:58;;;;;;;5.27;0.60;;;16.40;99.90;;;;;;5096980;28;20469;-88
2022/07/26 02:23:24;;;;;;;0.80;0.50;;;16.40;99.90;;;;;;5114849;28;20171;-91
2022/07/26 02:25:51;;;;;;;1.30;0.57;;;16.30;99.90;;;;;;5115134;28;20510;-89
2022/07/26 02:28:16;;;;;;;1.30;0.50;;;16.30;99.90;;;;;;5114779;28;20413;-91
2022/07/26 02:30:43;;;;;;;1.43;0.80;;;16.40;99.90;;;;;;5113949;28;20478;-88
2022/07/26 02:33:16;;;;;;;2.17;0.73;;;16.40;99.90;;;;;;5114234;28;20783;-94
2022/07/26 02:35:42;;;;;;;2.10;0.70;;;16.40;99.90;;;;;;5115330;28;20414;-92
2022/07/26 02:38:10;;;;;;;1.80;1.10;;;16.50;99.90;;;;;;5112965;28;20466;-88
2022/07/26 02:40:37;;;;;;;1.80;0.70;;;16.50;99.90;;;;;;5113052;28;20773;-90
2022/07/26 02:43:04;;;;;;;2.03;0.60;;;16.60;99.90;;;;;;5113265;28;20434;-89
2022/07/26 02:45:29;;;;;;;1.43;0.40;;;16.60;99.90;;;;;;5113524;28;20417;-87
2022/07/26 02:47:55;;;;;;;1.40;0.97;;;16.60;99.90;;;;;;5113278;28;21002;-87
2022/07/26 02:50:23;;;;;;;2.57;0.67;;;16.60;99.90;;;;;;5114788;28;20172;-89
2022/07/26 02:52:49;;;;;;;3.73;1.00;;;16.60;99.90;;;;;;5114060;28;20534;-95
2022/07/26 02:55:16;;;;;;;1.10;0.50;;;16.50;99.90;;;;;;5114941;28;20423;-87
2022/07/26 02:57:42;;;;;;;1.10;0.60;;;16.50;99.90;;;;;;5113875;28;20423;-86
2022/07/26 03:00:10;;;;;;;1.47;0.50;;;16.40;99.90;;;;;;5113875;28;20773;-87
2022/07/26 03:02:36;;;;;;;1.00;0.33;;;16.50;99.90;;;;;;5114877;28;20205;-87
2022/07/26 03:05:04;;;;;;;1.70;0.50;;;16.40;99.90;;;;;;5114997;28;20908;-87
2022/07/26 03:07:29;;;;;;;3.30;0.83;;;16.40;99.90;;;;;;5113295;28;20681;-86
2022/07/26 03:09:54;;;;;;;2.40;0.50;;;16.30;99.90;;;;;;5114700;28;20503;-86
2022/07/26 03:12:20;;;;;;;2.77;0.97;;;16.30;99.90;;;;;;5114021;28;20165;-86
2022/07/26 03:14:45;;;;;;;2.20;0.73;;;16.30;99.90;;;;;;5114920;28;20664;-86
2022/07/26 03:17:11;;;;;;;2.47;0.57;;;16.30;99.90;;;;;;5113240;28;20176;-86
2022/07/26 03:19:36;;;;;;;1.60;0.60;;;16.40;99.90;;;;;;5113200;28;20267;-86
2022/07/26 03:22:02;;;;;;;1.00;0.80;;;16.40;99.90;;;;;;5112969;28;20570;-86
2022/07/26 03:24:27;;;;;;;1.37;0.63;;;16.50;99.90;;;;;;5114747;28;20175;-86
2022/07/26 03:26:53;;;;;;;1.30;0.47;;;16.60;99.90;;;;;;5114736;28;20589;-86
2022/07/26 03:29:18;;;;;;;3.17;0.40;;;16.60;99.90;;;;;;5114668;28;20157;-88
2022/07/26 03:31:44;;;;;;;1.40;0.70;;;16.60;99.90;;;;;;5114584;28;20260;-87
2022/07/26 03:34:09;;;;;;;1.47;0.60;;;16.60;99.90;;;;;;5114613;28;20169;-86
2022/07/26 03:36:35;;;;;;;4.83;1.07;;;16.60;99.90;;;;;;5114475;28;20178;-86
2022/07/26 03:39:00;;;;;;;2.43;0.87;;;16.70;99.90;;;;;;5112898;28;20264;-86
2022/07/26 03:41:26;;;;;;;1.37;0.60;;;16.60;99.90;;;;;;5114119;28;20209;-87
2022/07/26 03:43:51;;;;;;;5.87;1.20;;;16.60;99.90;;;;;;5112945;28;20217;-86
2022/07/26 03:46:17;;;;;;;1.00;0.50;;;16.70;99.90;;;;;;5114316;28;20214;-86
2022/07/26 03:48:42;;;;;;;2.03;0.70;;;16.60;99.90;;;;;;5112865;28;20167;-86
2022/07/26 03:51:08;;;;;;;1.00;0.30;;;16.60;99.90;;;;;;5114068;27;20173;-86
2022/07/26 03:53:33;;;;;;;2.90;0.90;;;16.60;99.90;;;;;;5112497;28;20176;-87
2022/07/26 03:58:43;;;;;;;1.77;0.57;;;16.60;99.90;;;;;;5114465;28;20237;-87
2022/07/26 04:01:09;;;;;;;2.03;0.47;;;16.50;99.90;;;;;;5117348;28;21002;-87
2022/07/26 04:03:34;;;;;;;2.70;1.23;;;16.50;99.90;;;;;;5113996;28;20176;-86
2022/07/26 04:06:01;;;;;;;1.40;0.37;;;16.50;99.90;;;;;;5112701;28;20173;-86
2022/07/26 04:08:26;;;;;;;1.60;0.30;;;16.50;99.90;;;;;;5112239;28;20176;-87
2022/07/26 04:10:52;;;;;;;2.53;0.90;;;16.50;99.90;;;;;;5113803;28;20414;-87
2022/07/26 04:13:18;;;;;;;2.77;0.70;;;16.60;99.90;;;;;;5112498;28;20544;-87
2022/07/26 04:15:44;;;;;;;2.13;1.00;;;16.70;99.90;;;;;;5113744;28;20646;-87
2022/07/26 04:18:09;;;;;;;1.73;0.60;;;16.80;99.90;;;;;;5113828;28;20408;-87
2022/07/26 04:20:34;;;;;;;2.40;0.50;;;16.70;99.90;;;;;;5112551;28;20254;-87
2022/07/26 04:23:00;;;;;;;2.20;0.53;;;16.80;99.90;;;;;;5111607;28;20559;-87
2022/07/26 04:25:25;;;;;;;1.07;0.40;;;16.80;99.90;;;;;;5113782;28;20212;-86
2022/07/26 04:27:51;;;;;;;3.00;0.57;;;16.80;99.90;;;;;;5113679;28;20622;-87
2022/07/26 04:30:17;;;;;;;1.20;0.40;;;16.90;99.90;;;;;;5112196;28;20574;-88
2022/07/26 04:32:57;;;;;;;1.13;0.60;;;16.90;99.90;;;;;;5090463;28;20290;-87
2022/07/26 04:35:23;;;;;;;1.10;0.37;;;16.80;99.90;;;;;;5113573;28;20506;-87
2022/07/26 04:37:48;;;;;;;2.93;0.80;;;16.90;99.90;;;;;;5111963;28;20177;-87
2022/07/26 04:40:19;;;;;;;1.90;0.67;;;17.00;99.90;;;;;;5113660;28;20527;-88
2022/07/26 04:42:45;;;;;;;1.80;0.30;;;17.00;99.90;;;;;;5113537;28;20209;-87
2022/07/26 04:45:14;;;;;;;1.40;0.73;;;17.10;99.90;;;;;;5112136;28;20526;-87
2022/07/26 04:47:48;;;;;;;3.33;0.87;;;17.10;99.90;;;;;;5113341;28;20173;-87
2022/07/26 04:50:13;;;;;;;1.33;1.00;;;17.30;99.90;;;;;;5113469;28;20412;-86
2022/07/26 04:52:39;;;;;;;3.57;1.03;;;17.30;99.90;;;;;;5111950;28;20930;-87
2022/07/26 04:55:06;;;;;;;1.67;0.40;;;17.40;99.90;;;;;;5112050;28;20174;-86
2022/07/26 04:57:32;;;;;;;3.93;0.97;;;17.40;99.90;;;;;;5112160;28;20638;-86
2022/07/26 04:59:57;;;;;;;1.00;0.50;;;17.40;99.90;;;;;;5113242;28;20415;-85
2022/07/26 05:02:23;;;;;;;3.80;1.33;;;17.50;99.90;;;;;;5111892;28;20215;-85
2022/07/26 05:04:48;;;;;;;4.77;1.23;;;17.50;99.90;;;;;;5111976;28;20174;-85
2022/07/26 05:07:14;;;;;;;2.33;0.63;;;17.60;99.90;;;;;;5112936;28;20197;-85
2022/07/26 05:09:39;;;;;;;0.83;0.47;;;17.70;99.90;;;;;;5113360;28;20160;-86
2022/07/26 05:12:05;;;;;;;2.33;1.07;;;17.70;99.90;;;;;;5113215;28;20177;-86
2022/07/26 05:14:30;;;;;;;1.70;0.40;;;17.60;99.90;;;;;;5111855;28;20200;-85
2022/07/26 05:16:56;;;;;;;5.70;1.00;;;17.60;99.90;;;;;;5113117;28;20178;-85
2022/07/26 05:19:21;;;;;;;1.83;0.50;;;17.60;99.90;;;;;;5113204;28;20178;-85
2022/07/26 05:21:47;;;;;;;1.33;0.67;;;17.60;99.90;;;;;;5111425;28;20816;-86
2022/07/26 05:24:12;;;;;;;2.07;0.80;;;17.60;99.90;;;;;;5113030;28;20173;-86
2022/07/26 05:26:38;;;;;;;2.80;1.03;;;17.70;99.90;;;;;;5111917;28;20304;-83
2022/07/26 05:29:03;;;;;;;5.60;0.93;;;17.70;99.90;;;;;;5113028;28;20168;-85
2022/07/26 05:31:29;;;;;;;2.83;0.80;;;17.80;99.90;;;;;;5111597;28;20223;-84
2022/07/26 05:33:54;;;;;;;3.80;1.40;;;18.00;99.90;;;;;;5112099;28;20804;-85
2022/07/26 05:36:20;;;;;;;3.20;1.07;;;18.00;99.90;;;;;;5116904;28;20183;-84
2022/07/26 05:38:46;;;;;;;3.07;0.70;;;18.00;99.90;;;;;;5115216;28;20632;-86
2022/07/26 05:41:11;;;;;;;2.27;0.80;;;18.00;99.90;;;;;;5117003;28;20198;-85
2022/07/26 05:43:37;;;;;;;3.13;1.47;;;17.90;99.90;;;;;;5116736;28;20685;-84
2022/07/26 05:46:03;;;;;;;1.90;1.23;;;17.90;99.90;;;;;;5116786;28;20205;-87
2022/07/26 05:48:28;;;;;;;1.53;0.57;;;17.90;99.90;;;;;;5116673;28;20240;-86
2022/07/26 05:50:54;;;;;;;1.03;0.50;;;17.90;99.90;;;;;;5116736;28;20218;-86
2022/07/26 05:53:19;;;;;;;2.43;1.00;;;18.00;99.90;;;;;;5115021;28;20176;-86
2022/07/26 05:55:45;;;;;;;1.70;1.30;;;17.90;99.90;;;;;;5117102;28;20248;-88
2022/07/26 05:58:10;;;;;;;3.97;1.03;;;17.90;99.90;;;;;;5116611;28;20180;-88
2022/07/26 06:00:36;;;;;;;2.27;0.70;;;18.10;99.90;;;;;;5115316;28;20179;-87
2022/07/26 06:05:45;;;;;;;1.87;0.93;;;18.40;99.90;;;;;;5117666;28;20524;-82
2022/07/26 06:08:11;;;;;;;3.90;1.50;;;18.20;99.90;;;;;;5116874;28;20417;-82
2022/07/26 06:10:36;;;;;;;1.87;1.10;;;17.90;99.90;;;;;;5116633;28;20625;-86
2022/07/26 06:13:02;;;;;;;3.33;0.70;;;17.60;99.90;;;;;;5116761;28;20174;-85
2022/07/26 06:15:27;;;;;;;1.20;0.37;;;17.50;99.90;;;;;;5116627;28;20246;-85
2022/07/26 06:17:53;;;;;;;0.80;0.40;;;17.40;99.90;;;;;;5116953;28;20164;-89
2022/07/26 06:20:18;;;;;;;1.33;0.50;;;17.40;99.90;;;;;;5116959;28;20218;-86
2022/07/26 06:22:44;;;;;;;1.53;0.40;;;17.40;99.90;;;;;;5117012;28;20317;-87
2022/07/26 06:25:09;;;;;;;0.90;0.30;;;17.40;99.90;;;;;;5117500;28;20167;-87
2022/07/26 06:27:35;;;;;;;1.47;0.50;;;17.40;99.90;;;;;;5117640;28;20198;-91
2022/07/26 06:30:00;;;;;;;1.70;0.27;;;17.40;99.90;;;;;;5116349;28;20255;-88
2022/07/26 06:32:26;;;;;;;2.50;0.63;;;17.40;99.90;;;;;;5121447;27;20234;-90
2022/07/26 06:34:51;;;;;;;2.17;0.50;;;17.40;99.90;;;;;;5119580;28;20238;-88
2022/07/26 06:37:17;;;;;;;1.07;0.27;;;17.40;99.90;;;;;;5118946;27;20231;-84
2022/07/26 06:39:42;;;;;;;1.00;0.30;;;17.50;99.90;;;;;;5115597;28;20255;-88
2022/07/26 06:42:08;;;;;;;3.07;0.80;;;17.60;99.90;;;;;;5115334;28;20579;-86
2022/07/26 06:44:33;;;;;;;1.30;0.63;;;17.70;99.90;;;;;;5116147;28;20170;-88
2022/07/26 06:46:59;;;;;;;1.80;0.43;;;17.90;99.90;;;;;;5116287;28;20194;-87
2022/07/26 06:49:24;;;;;;;1.03;0.30;;;18.00;99.90;;;;;;5116602;28;20285;-88
2022/07/26 06:51:50;;;;;;;1.70;0.97;;;18.20;99.90;;;;;;5115919;28;20190;-86
2022/07/26 06:54:15;;;;;;;1.57;0.43;;;18.40;99.90;;;;;;5116419;28;20166;-90
2022/07/26 06:56:41;;;;;;;1.47;1.27;;;19.20;99.90;;;;;;5116907;28;20202;-90
2022/07/26 06:59:07;;;;;;;1.00;0.60;;;18.90;99.90;;;;;;5118559;28;20163;-91
2022/07/26 07:01:33;;;;;;;1.20;0.40;;;18.50;99.90;;;;;;5119290;28;20203;-87
2022/07/26 07:03:59;;;;;;;0.50;0.20;;;19.40;99.90;;;;;;5122228;28;20170;-89
2022/07/26 07:06:24;;;;;;;2.27;0.40;;;22.90;6.00;;;;;;5124974;28;20182;-89
2022/07/26 07:08:49;;;;;;;1.90;0.50;;;22.10;1.00;;;;;;5123413;28;20410;-94
2022/07/26 07:11:15;;;;;;;1.10;0.90;;;20.60;99.90;;;;;;5133425;28;20170;-86
2022/07/26 07:13:40;;;;;;;1.67;0.33;;;19.70;99.90;;;;;;5136400;27;20637;-84
2022/07/26 07:16:06;;;;;;;0.50;0.20;;;19.10;99.90;;;;;;5136344;28;20229;-85
2022/07/26 07:18:32;;;;;;;1.17;0.30;;;21.20;99.90;;;;;;5134047;28;20240;-89
2022/07/26 07:20:57;;;;;;;0.50;0.30;;;21.20;99.90;;;;;;5119162;28;20186;-91
2022/07/26 07:23:23;;;;;;;0.87;0.30;;;20.20;99.90;;;;;;5122068;28;20680;-91
2022/07/26 07:25:49;;;;;;;0.60;0.20;;;19.20;99.90;;;;;;5117476;28;20170;-87
2022/07/26 07:28:15;;;;;;;0.53;0.20;;;18.50;99.90;;;;;;5114386;28;20168;-89
2022/07/26 07:30:40;;;;;;;1.40;0.20;;;18.20;99.90;;;;;;5114000;28;20582;-84
2022/07/26 07:33:08;;;;;;;1.47;0.30;;;18.00;99.90;;;;;;5114027;28;20944;-86
2022/07/26 07:35:34;;;;;;;0.73;0.20;;;17.90;99.90;;;;;;5114308;28;20177;-86
2022/07/26 07:37:59;;;;;;;1.40;0.27;;;17.80;99.90;;;;;;5114773;28;20792;-83
2022/07/26 07:40:25;;;;;;;0.40;0.20;;;17.90;99.90;;;;;;5115799;28;20778;-90
2022/07/26 07:42:50;;;;;;;0.73;0.20;;;17.90;99.90;;;;;;5115186;28;20209;-84
2022/07/26 07:45:16;;;;;;;1.33;0.30;;;18.60;99.90;;;;;;5113527;28;20181;-88
2022/07/26 07:47:41;;;;;;;0.60;0.20;;;18.80;99.90;;;;;;5113613;28;20240;-86
2022/07/26 07:50:11;;;;;;;0.37;0.20;;;19.90;99.90;;;;;;5115038;28;20183;-88
2022/07/26 07:52:36;;;;;;;1.43;0.20;;;22.40;1.00;;;;;;5113378;28;20171;-89
2022/07/26 07:55:02;;;;;;;0.50;0.10;;;24.00;99.90;;;;;;5115082;28;20429;-88
2022/07/26 07:57:27;;;;;;;1.33;0.20;;;24.80;27.20;;;;;;5112059;28;20530;-90
2022/07/26 07:59:53;;;;;;;0.40;0.20;;;22.00;99.90;;;;;;5113441;28;20171;-88
2022/07/26 08:02:18;;;;;;;0.70;0.20;;;20.50;83.00;;;;;;5113470;28;20202;-89
2022/07/26 08:04:44;;;;;;;0.57;0.20;;;19.10;99.90;;;;;;5114890;28;20172;-92
2022/07/26 08:07:09;;;;;;;0.30;0.20;;;18.40;99.90;;;;;;5119372;28;20185;-91
2022/07/26 08:09:35;;;;;;;0.33;0.20;;;17.70;99.90;;;;;;5120250;28;20167;-91
2022/07/26 08:12:01;;;;;;;0.97;0.20;;;17.60;99.90;;;;;;5118574;28;20167;-83
2022/07/26 08:14:27;;;;;;;0.50;0.20;;;17.40;99.90;;;;;;5117515;28;20176;-85
2022/07/26 08:16:52;;;;;;;2.57;0.20;;;17.60;99.90;;;;;;5116434;28;20440;-86
2022/07/26 08:19:18;;;;;;;1.07;0.20;;;17.90;99.90;;;;;;5115237;28;20173;-87
2022/07/26 08:21:44;;;;;;;0.40;0.20;;;18.10;99.90;;;;;;5112286;28;20692;-87
2022/07/26 08:24:10;;;;;;;1.17;0.20;;;19.90;99.90;;;;;;5113857;28;20258;-87
2022/07/26 08:26:36;;;;;;;0.30;0.10;;;21.70;1.00;;;;;;5114067;28;20462;-87
2022/07/26 08:29:02;;;;;;;2.10;0.40;;;23.50;99.90;;;;;;5113824;28;20601;-86
2022/07/26 08:31:27;;;;;;;1.00;0.63;;;24.30;1.00;;;;;;5114121;28;20227;-87
2022/07/26 08:33:53;;;;;;;0.57;0.20;;;24.90;44.60;;;;;;5114279;28;20186;-87
2022/07/26 08:36:19;;;;;;;0.50;0.20;;;24.90;99.90;;;;;;5113760;28;20180;-89
2022/07/26 08:38:45;;;;;;;0.50;0.20;;;25.00;1.00;;;;;;5114105;28;20168;-90
2022/07/26 08:41:10;;;;;;;0.60;0.20;;;25.20;1.00;;;;;;5112007;28;20215;-92
2022/07/26 08:43:36;;;;;;;1.97;0.20;;;25.70;99.90;;;;;;5116384;28;20470;-92
2022/07/26 08:46:02;;;;;;;0.50;0.20;;;25.80;99.90;;;;;;5118212;28;20176;-94
2022/07/26 08:48:28;;;;;;;0.57;0.20;;;26.10;99.90;;;;;;5115575;28;20175;-94
2022/07/26 08:51:07;;;;;;;1.63;0.20;;;25.90;99.90;;;;;;5112749;28;20201;-90
2022/07/26 08:53:36;;;;;;;0.73;0.20;;;25.90;99.90;;;;;;5112745;28;20425;-93
2022/07/26 08:56:02;;;;;;;1.00;0.20;;;26.00;99.90;;;;;;5113152;28;20413;-88
2022/07/26 08:58:30;;;;;;;0.70;0.30;;;25.10;99.90;;;;;;5113120;28;20433;-89
2022/07/26 09:01:03;;;;;;;1.90;0.20;;;25.60;99.90;;;;;;5112752;28;20417;-92
2022/07/26 09:03:30;;;;;;;0.40;0.20;;;26.20;99.90;;;;;;5115921;28;20836;-93
2022/07/26 09:06:13;;;;;;;1.03;0.20;;;26.40;99.90;;;;;;5113329;28;20412;-91
2022/07/26 09:08:38;;;;;;;0.80;0.20;;;26.10;99.90;;;;;;5114704;28;20470;-91
2022/07/26 09:11:31;;;;;;;0.50;0.20;;;24.80;99.90;;;;;;5115753;28;20417;-91
2022/07/26 09:14:03;;;;;;;0.40;0.20;;;23.40;99.90;;;;;;5112065;28;20850;-88
2022/07/26 09:16:29;;;;;;;0.60;0.20;;;22.20;99.90;;;;;;5116591;28;20436;-86
2022/07/26 09:19:16;;;;;;;0.70;0.20;;;21.80;99.90;;;;;;5116407;28;20463;-88
2022/07/26 09:21:42;;;;;;;1.37;0.20;;;22.20;1.00;;;;;;5116328;28;20460;-91
2022/07/26 09:24:09;;;;;;;0.40;0.20;;;22.40;99.90;;;;;;5116532;28;20406;-89
2022/07/26 09:26:35;;;;;;;0.73;0.30;;;22.60;99.90;;;;;;5120816;28;20151;-84
2022/07/26 09:29:11;;;;;;;1.10;0.20;;;21.80;1.00;;;;;;5117358;28;20977;-94
2022/07/26 09:31:37;;;;;;;0.30;0.20;;;21.10;99.90;;;;;;5117888;28;20456;-88
2022/07/26 09:34:04;;;;;;;0.80;0.20;;;21.30;1.00;;;;;;5116640;28;20409;-84
2022/07/26 09:36:30;;;;;;;0.30;0.20;;;20.60;29.60;;;;;;5116130;28;20405;-85
2022/07/26 09:39:02;;;;;;;0.30;0.20;;;20.20;1.00;;;;;;5116418;28;20441;-88
2022/07/26 09:41:32;;;;;;;0.40;0.20;;;19.90;1.00;;;;;;5116747;28;20518;-88
2022/07/26 09:44:18;;;;;;;0.30;0.20;;;20.60;99.90;;;;;;5115432;28;20416;-91
2022/07/26 09:46:51;;;;;;;0.50;0.20;;;21.30;99.90;;;;;;5115766;28;20415;-86
2022/07/26 09:49:18;;;;;;;1.03;0.20;;;22.60;86.60;;;;;;5116046;28;20405;-90
2022/07/26 09:51:46;;;;;;;1.00;0.20;;;23.20;1.00;;;;;;5115439;28;20412;-87
2022/07/26 09:54:30;;;;;;;0.80;0.20;;;23.80;1.00;;;;;;5115694;28;20936;-90
2022/07/26 09:56:56;;;;;;;0.50;0.20;;;24.50;99.90;;;;;;5115180;28;20486;-88
2022/07/26 09:59:23;;;;;;;0.40;0.20;;;24.80;1.00;;;;;;5115660;28;20420;-87
2022/07/26 10:01:51;;;;;;;1.70;0.23;;;24.30;99.90;;;;;;5115214;28;20542;-86
2022/07/26 10:04:18;;;;;;;1.33;0.20;;;24.90;99.90;;;;;;5115096;28;20405;-88
2022/07/26 10:06:44;;;;;;;0.50;0.20;;;23.90;99.90;;;;;;5114972;28;20463;-86
2022/07/26 10:09:11;;;;;;;0.40;0.20;;;22.70;1.00;;;;;;5114014;28;20479;-84
2022/07/26 10:12:01;;;;;;;0.67;0.20;;;24.00;99.90;;;;;;5113950;28;20413;-86
2022/07/26 10:14:37;;;;;;;0.80;0.20;;;24.00;99.90;;;;;;5113957;28;20496;-87
2022/07/26 10:17:27;;;;;;;1.03;0.20;;;23.30;99.90;;;;;;5114970;28;20427;-86
2022/07/26 10:19:54;;;;;;;0.63;0.20;;;23.60;99.90;;;;;;5113596;28;20929;-82
2022/07/26 10:22:26;;;;;;;0.40;0.20;;;22.50;99.90;;;;;;5115271;28;20461;-82
2022/07/26 10:25:15;;;;;;;1.10;0.20;;;21.70;1.00;;;;;;5115143;28;20539;-83
2022/07/26 10:27:42;;;;;;;1.03;0.40;;;21.30;1.00;;;;;;5115531;28;20409;-83
2022/07/26 10:30:21;;;;;;;0.40;0.20;;;22.80;1.00;;;;;;5114190;28;20417;-83
2022/07/26 10:32:49;;;;;;;0.40;0.10;;;24.90;99.90;;;;;;5115777;28;20413;-84
2022/07/26 10:35:35;;;;;;;1.60;0.40;;;25.80;99.90;;;;;;5114302;28;20442;-83
2022/07/26 10:38:03;;;;;;;0.97;0.20;;;25.80;99.90;;;;;;5116488;28;20428;-94
2022/07/26 10:40:29;;;;;;;0.60;0.20;;;26.00;82.60;;;;;;5115877;28;20450;-93
2022/07/26 10:43:15;;;;;;;0.80;0.20;;;26.00;80.00;;;;;;5115075;28;20991;-87
2022/07/26 10:45:41;;;;;;;2.10;0.20;;;27.00;94.10;;;;;;5113959;28;20417;-91
2022/07/26 10:48:19;;;;;;;0.50;0.20;;;26.40;39.60;;;;;;5116666;28;20421;-93
2022/07/26 10:50:50;;;;;;;0.70;0.30;;;24.90;45.00;;;;;;5116955;28;20484;-90
2022/07/26 10:53:19;;;;;;;1.13;0.20;;;25.50;44.80;;;;;;5114362;28;20814;-90
2022/07/26 10:55:52;;;;;;;0.40;0.20;;;26.30;41.80;;;;;;5113735;28;20819;-88
2022/07/26 10:58:19;;;;;;;0.40;0.20;;;26.90;37.30;;;;;;5114302;28;20774;-90
2022/07/26 11:01:02;;;;;;;0.40;0.20;;;26.80;35.30;;;;;;5113980;28;20405;-91
2022/07/26 11:03:38;;;;;;;1.53;0.30;;;25.20;23.60;;;;;;5114151;28;20939;-87
2022/07/26 11:06:15;;;;;;;1.10;0.20;;;24.90;23.80;;;;;;5112922;28;20417;-88
2022/07/26 11:08:42;;;;;;;0.83;0.20;;;25.60;26.10;;;;;;5112643;28;20482;-87
2022/07/26 11:11:07;;;;;;;0.93;0.20;;;25.10;30.40;;;;;;5113772;28;20470;-87
2022/07/26 11:13:35;;;;;;;0.73;0.20;;;26.10;11.80;;;;;;5113771;28;20890;-88
2022/07/26 11:16:06;;;;;;;1.07;0.20;;;26.20;7.70;;;;;;5113916;28;20164;-87
2022/07/26 11:18:34;;;;;;;0.87;0.20;;;25.90;5.60;;;;;;5114077;28;20913;-88
2022/07/26 11:21:12;;;;;;;2.93;0.30;;;26.30;1.00;;;;;;5113397;28;20469;-87
2022/07/26 11:23:43;;;;;;;0.30;0.20;;;25.80;9.40;;;;;;5113784;28;20499;-86
2022/07/26 11:26:24;;;;;;;0.73;0.27;;;24.80;1.00;;;;;;5112972;28;20940;-89
2022/07/26 11:29:01;;;;;;;0.50;0.20;;;24.50;1.00;;;;;;5114360;28;20422;-91
2022/07/26 11:31:41;;;;;;;0.60;0.20;;;25.30;1.00;;;;;;5112875;28;20461;-89
2022/07/26 11:34:15;;;;;;;0.50;0.20;;;25.40;3.70;;;;;;5112570;28;20420;-87
2022/07/26 11:36:44;;;;;;;0.50;0.20;;;24.40;1.00;;;;;;5113279;28;20473;-92
2022/07/26 11:39:12;;;;;;;0.90;0.23;;;24.70;6.70;;;;;;5112945;28;20425;-91
2022/07/26 11:41:39;;;;;;;1.40;0.20;;;23.60;4.10;;;;;;5112802;28;20553;-87
2022/07/26 11:44:05;;;;;;;0.87;0.30;;;23.40;18.00;;;;;;5113930;27;20421;-90
2022/07/26 11:46:45;;;;;;;0.80;0.20;;;23.00;19.40;;;;;;5111939;28;20413;-88
2022/07/26 11:49:19;;;;;;;0.77;0.20;;;23.60;29.80;;;;;;5113241;28;20408;-87
2022/07/26 11:51:56;;;;;;;1.40;0.30;;;25.50;3.10;;;;;;5112809;28;20408;-89
2022/07/26 11:54:24;;;;;;;2.70;0.20;;;26.10;2.40;;;;;;5113131;28;20913;-88
2022/07/26 11:56:53;;;;;;;0.93;0.30;;;26.70;5.30;;;;;;5113127;28;20412;-88
2022/07/26 11:59:20;;;;;;;1.03;0.20;;;26.50;1.00;;;;;;5112895;28;20470;-86
2022/07/26 12:01:46;;;;;;;1.60;0.20;;;26.50;1.00;;;;;;5111768;28;20473;-90
2022/07/26 12:04:26;;;;;;;1.30;0.23;;;26.30;1.00;;;;;;5114066;27;20492;-88
2022/07/26 12:06:53;;;;;;;2.20;0.40;;;25.60;1.00;;;;;;5113897;28;20175;-93
2022/07/26 12:09:32;;;;;;;1.00;0.20;;;24.80;1.00;;;;;;5112662;28;20421;-87
2022/07/26 12:11:59;;;;;;;1.07;0.50;;;25.60;1.00;;;;;;5113944;28;20413;-87
2022/07/26 12:14:27;;;;;;;0.90;0.30;;;25.00;1.00;;;;;;5114522;28;20710;-88
2022/07/26 12:16:53;;;;;;;0.87;0.27;;;24.00;1.00;;;;;;5112808;28;20429;-88
2022/07/26 12:19:25;;;;;;;0.60;0.20;;;24.50;1.00;;;;;;5114038;28;20402;-87
2022/07/26 12:22:07;;;;;;;1.37;0.20;;;25.90;1.00;;;;;;5112162;28;20473;-89
2022/07/26 12:24:41;;;;;;;2.23;0.30;;;26.00;1.00;;;;;;5114997;28;20413;-89
2022/07/26 12:27:13;;;;;;;1.03;0.40;;;25.90;1.00;;;;;;5115205;28;20965;-90
2022/07/26 12:29:41;;;;;;;1.40;0.30;;;24.50;1.00;;;;;;5112491;28;20431;-89
2022/07/26 12:32:22;;;;;;;1.87;0.20;;;24.40;1.00;;;;;;5111921;28;20533;-94
2022/07/26 12:35:14;;;;;;;1.20;0.20;;;25.30;1.00;;;;;;5112764;28;20460;-89
2022/07/26 12:37:45;;;;;;;0.83;0.20;;;26.20;1.00;;;;;;5112628;28;20449;-88
2022/07/26 12:40:17;;;;;;;1.43;0.20;;;26.50;1.00;;;;;;5113616;28;20414;-90
2022/07/26 12:42:48;;;;;;;1.80;0.23;;;27.00;1.00;;;;;;5112834;28;20500;-89
2022/07/26 12:45:15;;;;;;;2.30;0.30;;;26.60;1.00;;;;;;5113195;28;20493;-91
2022/07/26 12:47:43;;;;;;;0.77;0.20;;;25.30;1.00;;;;;;5114474;28;20413;-91
2022/07/26 12:50:10;;;;;;;0.97;0.20;;;24.70;1.00;;;;;;5114956;28;20405;-87
2022/07/26 12:52:36;;;;;;;1.17;0.20;;;24.20;1.00;;;;;;5113277;28;20432;-91
2022/07/26 12:55:04;;;;;;;0.60;0.20;;;23.10;1.00;;;;;;5112047;28;20410;-89
2022/07/26 12:57:29;;;;;;;1.20;0.50;;;23.60;1.00;;;;;;5115181;28;20236;-92